Nome, AK

5:48 AM AKDT on August 29, 2014 (GMT -0800)
BA Airport | Change Station
CLOSE
Current Station
Personal Weather Station
Location: Nome, AK
Elevation: 37 ft
Nearby Weather Stations

Elev 37 ft 64.51 °N, 165.45 °W | Updated 33 seconds ago

Scattered Clouds
Scattered Clouds
35.3 °F
Feels Like 29 °F
N
8.0
Wind Variable Wind from WNW
Gusts 10.0 mph

Today
High -- | Low -- °F
--% Chance of Precip.
Yesterday
High -- | Low -- °F
Precip. -- in
7:34 AM 10:27 PM
Waxing Crescent, 14% visible
Pressure 29.81 in
Visibility 10.0 miles
Clouds Few 2200 ft
Few 3200 ft
Scattered Clouds 7500 ft
Windchill 29 °F
Dew Point 33 °F
Humidity 90%
Rainfall 0.00 in
Snow Depth Not available.
UV 0 out of 12
Pollen Not available.
Air Quality Not available.
Flu Activity Not available.
METAR PAOM 291253Z 35005KT 10SM FEW022 FEW032 SCT075 02/M01 A2980 RMK SLP092 T00171006 VIA AUTODIAL

More Conditions Fewer Conditions

Pressure 29.81 in
Visibility 10.0 miles
Clouds Few 2200 ft
Few 3200 ft
Scattered Clouds 7500 ft
Windchill 29 °F
Dew Point 33 °F
Humidity 90%
Rainfall 0.00 in
Snow Depth Not available.
UV 0 out of 12
Pollen Not available.
Air Quality Not available.
Flu Activity Not available.
METAR PAOM 291253Z 35005KT 10SM FEW022 FEW032 SCT075 02/M01 A2980 RMK SLP092 T00171006 VIA AUTODIAL

More Conditions Fewer Conditions

10-Day Weather Forecast

Almanac

Astronomy

Aug. 29, 2014 Rise Set
Actual Time 7:34 AM AKDT 10:27 PM AKDT
Civil Twilight 6:38 AM AKDT 11:23 PM AKDT
Nautical Twilight 5:17 AM AKDT 12:42 AM AKDT
Astronomical Twilight 3:34 AM AKDT 2:29 AM AKDT
Moon 1:17 PM AKDT 10:45 PM AKDT
Length of Visible Light 16h 44m
Length of Day
14h 53m
Tomorrow will be 6m 38s shorter.
Waxing Crescent, 14% of the Moon is Illuminated
Today
Waxing Crescent
Sep 2
First Quarter
Sep 8
Full
Sep 15
Last Quarter
Sep 24
New

Today's Extremes

State Highs State Lows

Community

WunderPhotos

Upload Photos

1,748,235 photos uploaded!

Nearby

Snow Depth

Station Depth Elevation
Rocky Point 5 in 500 ft
Gobblers Knob 0 in 2030 ft
Coldfoot 1 in 1040 ft
Susitna Valley High 109 in 375 ft
Atigun Pass 0 in 4800 ft

Earthquake Activity

City Distance Mag. Time & Date
No recent earthquake activity has been reported nearby.
Minimum magnitude displayed is 2.5.

Coastal Water Temperatures

Place Temperature
No Stations Reporting

Nearby Weather Stations